Alvin, South Carolina
Current Conditions -  °F | °C
As of 12:35 PM on Thursday 30 Oct 2014 (Local Time) from KMNI Reporting Station
Clear Clear  
Wind Chill: 68°   Ceiling: Unl
Heat Index: 68°   Visibility: 10mi
Dew Point: 55°   Wind: 10mph
Humidity: 64%   Direction: 30°NNE
Pressure: 30.02"   Gusts: NA
Location:  33.4606°N, 80.009°W
Report Text: KMNI 301635Z AUTO 03009KT 10SM CLR 20/13 A3002 RMK AO2
Loading
Personal Weather Stations






























Interactive Weather Map
Tropical Storm Tracking
New forecast layout! Learn more

10-Day Weather Forecast

Advertisements
Track Severe Weather on mobile